createdAt,value
2022-10-20T00:01:38.558Z,13.70
2022-10-20T00:04:43.012Z,12.70
2022-10-20T00:07:46.187Z,13.33
2022-10-20T00:10:54.993Z,13.97
2022-10-20T00:13:59.265Z,12.90
2022-10-20T00:17:02.220Z,13.30
2022-10-20T00:20:08.103Z,14.00
2022-10-20T00:23:11.167Z,13.50
2022-10-20T00:26:16.303Z,14.17
2022-10-20T00:29:19.363Z,13.90
2022-10-20T00:32:22.377Z,13.50
2022-10-20T00:35:27.339Z,13.53
2022-10-20T00:38:30.448Z,13.07
2022-10-20T00:41:34.879Z,13.50
2022-10-20T00:44:51.158Z,13.00
2022-10-20T00:47:56.979Z,13.60
2022-10-20T00:51:01.362Z,13.33
2022-10-20T00:54:08.946Z,13.10
2022-10-20T00:57:12.119Z,12.43
2022-10-20T01:00:16.532Z,12.00
2022-10-20T01:03:23.921Z,12.83
2022-10-20T01:06:28.557Z,12.37
2022-10-20T01:09:32.314Z,13.40
2022-10-20T01:12:45.464Z,12.17
2022-10-20T01:15:57.397Z,12.37
2022-10-20T01:19:09.152Z,12.43
2022-10-20T01:22:43.227Z,12.13
2022-10-20T01:25:58.261Z,11.13
2022-10-20T01:29:10.611Z,11.70
2022-10-20T01:32:21.807Z,11.37
2022-10-20T01:35:36.734Z,11.80
2022-10-20T01:38:45.310Z,11.40
2022-10-20T01:41:54.313Z,11.40
2022-10-20T01:45:05.738Z,11.37
2022-10-20T01:48:11.143Z,10.60
2022-10-20T01:51:14.191Z,10.97
2022-10-20T01:54:28.845Z,10.57
2022-10-20T01:57:47.459Z,11.17
2022-10-20T02:00:53.934Z,10.70
2022-10-20T02:04:00.659Z,10.53
2022-10-20T02:07:10.465Z,10.60
2022-10-20T02:10:19.012Z,10.93
2022-10-20T02:13:22.721Z,9.80
2022-10-20T02:16:31.039Z,10.17
2022-10-20T02:19:39.642Z,9.97
2022-10-20T02:22:42.712Z,10.20
2022-10-20T02:25:48.133Z,10.23
2022-10-20T02:28:57.074Z,10.37
2022-10-20T02:32:01.995Z,9.73
2022-10-20T02:35:06.849Z,9.60
2022-10-20T02:38:10.000Z,10.07
2022-10-20T02:41:13.049Z,9.93
2022-10-20T02:44:16.055Z,9.20
2022-10-20T02:47:21.211Z,9.90
2022-10-20T02:50:24.189Z,9.20
2022-10-20T02:53:27.209Z,10.13
2022-10-20T02:56:31.066Z,10.07
2022-10-20T02:59:34.511Z,9.33
2022-10-20T03:02:38.909Z,8.90
2022-10-20T03:05:44.509Z,9.40
2022-10-20T03:08:47.573Z,9.70
2022-10-20T03:11:50.575Z,8.87
2022-10-20T03:14:53.593Z,9.50
2022-10-20T03:17:57.942Z,10.43
2022-10-20T03:21:01.057Z,10.70
2022-10-20T03:24:04.153Z,9.60
2022-10-20T03:27:07.169Z,8.90
2022-10-20T03:30:11.231Z,9.50
2022-10-20T03:33:15.653Z,9.90
2022-10-20T03:36:18.653Z,10.77
2022-10-20T03:39:21.789Z,10.07
2022-10-20T03:42:24.757Z,9.40
2022-10-20T03:45:27.761Z,9.10
2022-10-20T03:48:32.741Z,9.80
2022-10-20T03:51:35.704Z,9.17
2022-10-20T03:54:40.849Z,11.70
2022-10-20T03:57:43.965Z,10.07
2022-10-20T04:00:47.386Z,9.37
2022-10-20T04:03:51.738Z,10.10
2022-10-20T04:06:54.770Z,9.23
2022-10-20T04:09:58.470Z,9.50
2022-10-20T04:13:01.901Z,9.80
2022-10-20T04:16:04.949Z,9.90
2022-10-20T04:19:09.441Z,9.70
2022-10-20T04:22:12.605Z,10.40
2022-10-20T04:25:15.719Z,9.93
2022-10-20T04:28:20.972Z,10.37
2022-10-20T04:31:23.996Z,9.97
2022-10-20T04:34:28.414Z,10.10
2022-10-20T04:37:31.463Z,9.60
2022-10-20T04:40:34.876Z,9.40
2022-10-20T04:43:37.856Z,10.00
2022-10-20T04:46:40.897Z,9.30
2022-10-20T04:49:45.330Z,9.70
2022-10-20T04:52:48.304Z,9.37
2022-10-20T04:55:55.820Z,9.70
2022-10-20T04:59:00.142Z,8.93
2022-10-20T05:02:03.208Z,8.70
2022-10-20T05:05:08.386Z,8.77
2022-10-20T05:08:11.529Z,9.37
2022-10-20T05:11:15.902Z,9.33
2022-10-20T05:14:18.878Z,9.10
2022-10-20T05:17:21.858Z,8.93
2022-10-20T05:20:26.209Z,8.97
2022-10-20T05:23:29.198Z,8.10
2022-10-20T05:26:37.171Z,8.40
2022-10-20T05:29:40.162Z,8.87
2022-10-20T05:32:43.148Z,8.67
2022-10-20T05:35:47.581Z,8.93
2022-10-20T05:38:52.200Z,9.53
2022-10-20T05:41:55.189Z,9.40
2022-10-20T05:44:58.164Z,9.20
2022-10-20T05:48:01.151Z,9.47
2022-10-20T05:51:14.919Z,8.60
2022-10-20T05:54:18.426Z,9.13
2022-10-20T05:57:21.421Z,8.63
2022-10-20T06:00:30.807Z,9.13
2022-10-20T06:03:34.033Z,9.70
2022-10-20T06:06:38.434Z,8.87
2022-10-20T06:09:41.819Z,9.37
2022-10-20T06:12:44.820Z,9.00
2022-10-20T06:15:49.219Z,9.30
2022-10-20T06:18:52.928Z,9.67
2022-10-20T06:21:58.023Z,9.30
2022-10-20T06:25:02.248Z,9.90
2022-10-20T06:28:05.487Z,9.47
2022-10-20T06:31:13.010Z,8.87
2022-10-20T06:34:17.714Z,8.30
2022-10-20T06:37:22.150Z,8.07
2022-10-20T06:40:25.182Z,8.53
2022-10-20T06:43:28.665Z,8.20
2022-10-20T06:46:33.372Z,8.03
2022-10-20T06:49:36.403Z,9.20
2022-10-20T06:52:40.794Z,9.33
2022-10-20T06:55:43.812Z,9.60
2022-10-20T06:58:48.891Z,8.93
2022-10-20T07:01:53.013Z,8.40
2022-10-20T07:04:56.107Z,10.00
2022-10-20T07:08:00.954Z,9.37
2022-10-20T07:11:06.317Z,9.23
2022-10-20T07:14:09.489Z,9.33
2022-10-20T07:17:12.463Z,9.07
2022-10-20T07:20:15.717Z,9.60
2022-10-20T07:23:20.434Z,9.23
2022-10-20T07:26:25.111Z,9.57
2022-10-20T07:29:28.170Z,9.83
2022-10-20T07:32:32.056Z,9.20
2022-10-20T07:35:35.120Z,8.60
2022-10-20T07:38:40.140Z,8.90
2022-10-20T07:41:45.720Z,9.77
2022-10-20T07:44:48.894Z,8.37
2022-10-20T07:47:51.882Z,9.00
2022-10-20T07:50:54.906Z,8.97
2022-10-20T07:54:01.888Z,8.90
2022-10-20T07:57:05.194Z,9.10
2022-10-20T08:00:09.533Z,8.60
2022-10-20T08:03:12.805Z,8.33
2022-10-20T08:06:15.808Z,8.90
2022-10-20T08:09:20.261Z,7.83
2022-10-20T08:12:23.290Z,7.87
2022-10-20T08:15:26.332Z,8.00
2022-10-20T08:18:34.971Z,8.53
2022-10-20T08:21:38.044Z,7.90
2022-10-20T08:24:42.778Z,8.30
2022-10-20T08:27:45.896Z,7.90
2022-10-20T08:30:48.942Z,7.60
2022-10-20T08:33:53.182Z,7.97
2022-10-20T08:36:56.330Z,8.00
2022-10-20T08:40:00.780Z,7.40
2022-10-20T08:43:03.806Z,7.67
2022-10-20T08:46:07.435Z,8.10
2022-10-20T08:49:20.347Z,7.00
2022-10-20T08:52:25.330Z,7.87
2022-10-20T08:55:32.344Z,7.93
2022-10-20T08:58:35.354Z,6.97
2022-10-20T09:01:39.185Z,7.33
2022-10-20T09:04:47.561Z,6.80
2022-10-20T09:07:51.522Z,6.90
2022-10-20T09:10:56.791Z,7.20
2022-10-20T09:13:59.843Z,6.97
2022-10-20T09:17:03.314Z,6.17
2022-10-20T09:20:13.382Z,6.90
2022-10-20T09:23:39.514Z,6.10
2022-10-20T09:26:58.174Z,6.30
2022-10-20T09:30:15.618Z,5.97
2022-10-20T09:33:24.354Z,6.13
2022-10-20T09:36:32.179Z,5.87
2022-10-20T09:39:44.258Z,5.70
2022-10-20T09:42:53.889Z,5.93
2022-10-20T09:46:05.268Z,6.67
2022-10-20T09:49:09.274Z,5.60
2022-10-20T09:52:20.318Z,5.60
2022-10-20T09:55:29.543Z,6.10
2022-10-20T09:58:37.960Z,5.67
2022-10-20T10:01:54.720Z,6.20
2022-10-20T10:05:19.961Z,5.40
2022-10-20T10:08:24.755Z,5.50
2022-10-20T10:11:33.938Z,5.60
2022-10-20T10:14:38.775Z,5.03
2022-10-20T10:17:44.076Z,5.57
2022-10-20T10:20:47.232Z,5.40
2022-10-20T10:23:55.478Z,4.90
2022-10-20T10:26:59.126Z,5.40
2022-10-20T10:33:30.752Z,5.10
2022-10-20T10:36:36.413Z,4.67
2022-10-20T10:39:39.563Z,4.60
2022-10-20T10:43:17.443Z,4.53
2022-10-20T10:46:27.742Z,4.60
2022-10-20T10:49:47.320Z,4.50
2022-10-20T10:53:00.113Z,4.87
2022-10-20T10:56:15.452Z,5.27
2022-10-20T10:59:23.494Z,4.97
2022-10-20T11:03:04.596Z,4.53
2022-10-20T11:06:34.185Z,5.13
2022-10-20T11:09:43.953Z,4.47
2022-10-20T11:13:00.872Z,4.20
2022-10-20T11:16:16.255Z,4.57
2022-10-20T11:19:37.476Z,4.60
2022-10-20T11:22:53.325Z,4.33
2022-10-20T11:26:04.049Z,4.60
2022-10-20T11:29:12.710Z,4.40
2022-10-20T11:32:26.754Z,4.00
2022-10-20T11:35:37.061Z,4.40
2022-10-20T11:38:47.798Z,4.17
2022-10-20T11:41:55.206Z,4.17
2022-10-20T11:45:01.178Z,3.83
2022-10-20T11:48:13.487Z,3.80
2022-10-20T11:51:36.656Z,4.03
2022-10-20T11:54:53.653Z,4.43
2022-10-20T11:58:12.028Z,4.30
2022-10-20T12:01:31.167Z,4.60
2022-10-20T12:04:47.288Z,4.30
2022-10-20T12:08:34.410Z,4.60
2022-10-20T12:11:49.556Z,4.00
2022-10-20T12:14:58.940Z,3.97
2022-10-20T12:18:06.658Z,3.90
2022-10-20T12:21:12.008Z,3.70
2022-10-20T12:24:34.810Z,3.90
2022-10-20T12:27:39.389Z,3.77
2022-10-20T12:30:45.711Z,4.00
2022-10-20T12:34:03.802Z,4.43
2022-10-20T12:37:10.054Z,3.93
2022-10-20T12:40:27.644Z,4.20
2022-10-20T12:43:49.875Z,4.20
2022-10-20T12:46:58.794Z,4.43
2022-10-20T12:50:06.302Z,3.90
2022-10-20T12:53:15.366Z,4.20
2022-10-20T12:56:22.087Z,4.10
2022-10-20T12:59:47.819Z,4.00
2022-10-20T13:02:52.678Z,4.50
2022-10-20T13:05:55.788Z,4.00
2022-10-20T13:09:24.955Z,3.77
2022-10-20T13:12:30.677Z,4.07
2022-10-20T13:15:38.899Z,4.30
2022-10-20T13:18:49.786Z,4.07
2022-10-20T13:21:53.129Z,4.40
2022-10-20T13:24:57.524Z,3.80
2022-10-20T13:28:08.777Z,3.77
2022-10-20T13:31:25.443Z,3.97
2022-10-20T13:34:33.922Z,4.10
2022-10-20T13:37:53.807Z,3.93
2022-10-20T13:41:04.288Z,3.70
2022-10-20T13:44:22.883Z,4.27
2022-10-20T13:47:47.641Z,4.13
2022-10-20T13:50:56.915Z,3.77
2022-10-20T13:54:02.247Z,3.50
2022-10-20T13:57:05.811Z,3.60
2022-10-20T14:00:20.062Z,4.03
2022-10-20T14:03:24.498Z,4.20
2022-10-20T14:06:35.149Z,3.90
2022-10-20T14:09:40.583Z,4.20
2022-10-20T14:12:46.659Z,4.50
2022-10-20T14:15:54.050Z,4.20
2022-10-20T14:19:06.630Z,4.30
2022-10-20T14:22:18.580Z,4.33
2022-10-20T14:25:22.355Z,4.10
2022-10-20T14:28:27.448Z,4.33
2022-10-20T14:31:30.750Z,3.90
2022-10-20T14:34:37.542Z,4.07
2022-10-20T14:37:42.896Z,4.20
2022-10-20T14:40:52.164Z,4.33
2022-10-20T14:44:03.365Z,3.67
2022-10-20T14:47:13.889Z,3.87
2022-10-20T14:50:29.418Z,3.90
2022-10-20T14:53:34.950Z,4.10
2022-10-20T14:56:45.038Z,4.23
2022-10-20T14:59:56.052Z,3.87
2022-10-20T15:03:03.123Z,3.60
2022-10-20T15:06:16.729Z,4.00
2022-10-20T15:09:32.739Z,4.00
2022-10-20T15:12:42.971Z,3.73
2022-10-20T15:15:46.304Z,4.37
2022-10-20T15:18:50.247Z,4.00
2022-10-20T15:21:59.714Z,4.10
2022-10-20T15:25:02.876Z,3.97
2022-10-20T15:28:07.377Z,3.73
2022-10-20T15:31:19.456Z,4.70
2022-10-20T15:34:22.793Z,4.40
2022-10-20T15:37:27.446Z,4.20
2022-10-20T15:40:30.662Z,4.30
2022-10-20T15:43:33.966Z,4.27
2022-10-20T15:46:37.284Z,4.30
2022-10-20T15:49:40.312Z,4.27
2022-10-20T15:52:45.014Z,4.60
2022-10-20T15:55:48.111Z,4.77
2022-10-20T15:58:51.593Z,4.50
2022-10-20T16:01:54.770Z,4.43
2022-10-20T16:04:57.775Z,4.50
2022-10-20T16:08:02.598Z,4.33
2022-10-20T16:11:05.923Z,4.83
2022-10-20T16:14:08.920Z,4.17
2022-10-20T16:17:11.936Z,4.40
2022-10-20T16:20:16.041Z,4.20
2022-10-20T16:23:20.508Z,4.70
2022-10-20T16:26:23.859Z,4.60
2022-10-20T16:29:27.031Z,4.80
2022-10-20T16:32:32.995Z,4.87
2022-10-20T16:35:42.497Z,4.80
2022-10-20T16:38:46.876Z,4.90
2022-10-20T16:41:49.917Z,5.00
2022-10-20T16:44:53.001Z,5.50
2022-10-20T16:47:56.130Z,5.53
2022-10-20T16:50:59.383Z,5.40
2022-10-20T16:54:03.953Z,4.80
2022-10-20T16:57:10.966Z,5.03
2022-10-20T17:00:15.468Z,4.70
2022-10-20T17:03:20.352Z,4.40
2022-10-20T17:06:25.592Z,5.20
2022-10-20T17:09:30.210Z,4.57
2022-10-20T17:12:33.220Z,4.53
2022-10-20T17:15:36.234Z,3.97
2022-10-20T17:18:39.362Z,4.13
2022-10-20T17:21:42.454Z,4.10
2022-10-20T17:24:46.977Z,4.07
2022-10-20T17:27:49.974Z,4.07
2022-10-20T17:30:57.276Z,3.60
2022-10-20T17:34:00.996Z,4.00
2022-10-20T17:37:04.034Z,4.07
2022-10-20T17:40:09.504Z,3.93
2022-10-20T17:43:12.608Z,3.40
2022-10-20T17:46:18.459Z,3.70
2022-10-20T17:49:21.878Z,4.17
2022-10-20T17:52:24.898Z,4.93
2022-10-20T17:55:30.228Z,6.47
2022-10-20T17:58:33.805Z,5.03
2022-10-20T18:01:38.994Z,4.83
2022-10-20T18:04:42.053Z,5.20
2022-10-20T18:07:46.057Z,5.13
2022-10-20T18:10:50.463Z,6.00
2022-10-20T18:13:53.598Z,6.40
2022-10-20T18:16:56.708Z,6.50
2022-10-20T18:20:00.164Z,6.90
2022-10-20T18:23:03.414Z,6.90
2022-10-20T18:26:09.511Z,6.63
2022-10-20T18:29:14.814Z,7.10
2022-10-20T18:32:17.935Z,7.20
2022-10-20T18:35:23.203Z,6.90
2022-10-20T18:38:26.395Z,6.80
2022-10-20T18:41:33.116Z,6.50
2022-10-20T18:44:36.146Z,6.30
2022-10-20T18:47:40.818Z,6.40
2022-10-20T18:50:43.933Z,5.83
2022-10-20T18:53:47.646Z,5.73
2022-10-20T18:56:52.149Z,5.63
2022-10-20T18:59:55.163Z,5.73
2022-10-20T19:03:00.881Z,6.10
2022-10-20T19:06:16.265Z,5.87
2022-10-20T19:09:23.080Z,5.90
2022-10-20T19:12:27.679Z,5.33
2022-10-20T19:15:30.862Z,5.00
2022-10-20T19:18:35.541Z,6.07
2022-10-20T19:21:39.110Z,5.90
2022-10-20T19:24:42.297Z,5.50
2022-10-20T19:27:46.876Z,5.90
2022-10-20T19:30:49.993Z,5.87
2022-10-20T19:33:55.843Z,6.77
2022-10-20T19:36:59.426Z,7.93
2022-10-20T19:40:02.695Z,6.87
2022-10-20T19:43:07.511Z,7.30
2022-10-20T19:46:14.315Z,7.13
2022-10-20T19:49:17.452Z,7.83
2022-10-20T19:52:21.426Z,6.90
2022-10-20T19:55:24.469Z,7.57
2022-10-20T19:58:29.034Z,8.37
2022-10-20T20:01:32.350Z,8.00
2022-10-20T20:04:35.669Z,7.90
2022-10-20T20:07:39.222Z,8.53
2022-10-20T20:10:42.949Z,8.40
2022-10-20T20:13:47.605Z,8.03
2022-10-20T20:16:50.783Z,7.90
2022-10-20T20:19:53.764Z,7.80
2022-10-20T20:22:57.371Z,7.80
2022-10-20T20:26:03.848Z,7.67
2022-10-20T20:29:08.370Z,7.90
2022-10-20T20:32:11.459Z,8.23
2022-10-20T20:35:15.341Z,8.20
2022-10-20T20:38:18.423Z,7.50
2022-10-20T20:41:21.971Z,7.53
2022-10-20T20:44:26.454Z,6.83
2022-10-20T20:47:32.547Z,7.33
2022-10-20T20:50:35.819Z,6.80
2022-10-20T20:53:39.983Z,7.70
2022-10-20T20:56:43.617Z,7.90
2022-10-20T20:59:48.521Z,6.70
2022-10-20T21:02:51.631Z,7.30
2022-10-20T21:05:54.695Z,7.30
2022-10-20T21:08:58.179Z,7.47
2022-10-20T21:12:02.050Z,6.53
2022-10-20T21:15:07.902Z,6.70
2022-10-20T21:18:11.191Z,7.07
2022-10-20T21:21:16.701Z,7.10
2022-10-20T21:24:20.105Z,6.50
2022-10-20T21:27:23.396Z,7.13
2022-10-20T21:30:28.113Z,7.17
2022-10-20T21:33:31.541Z,6.73
2022-10-20T21:36:36.022Z,6.30
2022-10-20T21:39:39.316Z,6.53
2022-10-20T21:42:42.355Z,6.10
2022-10-20T21:45:46.949Z,5.53
2022-10-20T21:48:51.688Z,6.00
2022-10-20T21:51:56.822Z,6.73
2022-10-20T21:54:59.841Z,6.60
2022-10-20T21:58:03.123Z,5.40
2022-10-20T22:01:15.801Z,7.07
2022-10-20T22:04:21.081Z,5.90
2022-10-20T22:07:23.969Z,6.23
2022-10-20T22:10:27.119Z,6.70
2022-10-20T22:13:30.211Z,6.13
2022-10-20T22:16:36.932Z,5.87
2022-10-20T22:19:39.984Z,6.47
2022-10-20T22:22:43.049Z,5.80
2022-10-20T22:25:46.547Z,6.50
2022-10-20T22:28:51.526Z,6.77
2022-10-20T22:31:56.136Z,5.90
2022-10-20T22:34:59.245Z,6.60
2022-10-20T22:38:02.355Z,5.67
2022-10-20T22:41:05.743Z,5.83
2022-10-20T22:44:08.790Z,6.50
2022-10-20T22:47:13.298Z,6.37
2022-10-20T22:50:16.572Z,5.90
2022-10-20T22:53:19.663Z,6.47
2022-10-20T22:56:23.673Z,6.27
2022-10-20T22:59:26.893Z,7.00
2022-10-20T23:02:31.347Z,6.43
2022-10-20T23:05:35.789Z,6.50
2022-10-20T23:08:39.982Z,7.17
2022-10-20T23:11:43.075Z,6.07
2022-10-20T23:14:46.645Z,7.47
2022-10-20T23:17:51.264Z,7.07
2022-10-20T23:20:57.355Z,6.90
2022-10-20T23:24:01.331Z,7.40
2022-10-20T23:27:04.613Z,7.83
2022-10-20T23:30:09.087Z,7.20
2022-10-20T23:33:13.598Z,7.53
2022-10-20T23:36:17.507Z,5.90
2022-10-20T23:39:20.618Z,6.87
2022-10-20T23:42:23.958Z,6.97
2022-10-20T23:45:27.713Z,7.10
2022-10-20T23:48:32.290Z,6.43
2022-10-20T23:51:35.419Z,6.43
2022-10-20T23:54:38.675Z,6.80
2022-10-20T23:57:41.719Z,6.30
